Time;durP1;ratioP1;P1;durP2;ratioP2;P2;SDS_P1;SDS_P2;PMS_P1;PMS_P2;Temp;Humidity;BMP_temperature;BMP_pressure;BME280_temperature;BME280_humidity;BME280_pressure;Samples;Min_cycle;Max_cycle;Signal;HPM_P1;HPM_P2
2022/11/27 00:01:40;;;;;;;23.55;8.07;;;;;;;;;;5051984;28;20041;-79
2022/11/27 00:04:07;;;;;;;21.42;7.30;;;;;;;;;;5034981;28;20044;-79
2022/11/27 00:06:34;;;;;;;27.73;7.65;;;;;;;;;;5052318;28;20048;-78
2022/11/27 00:09:01;;;;;;;23.42;7.45;;;;;;;;;;5051093;28;20119;-78
2022/11/27 00:11:28;;;;;;;23.98;7.75;;;;;;;;;;5050961;28;20045;-78
2022/11/27 00:13:54;;;;;;;18.73;7.43;;;;;;;;;;5033160;28;20075;-78
2022/11/27 00:16:21;;;;;;;20.67;7.72;;;;;;;;;;5051225;28;20041;-78
2022/11/27 00:18:47;;;;;;;23.13;6.13;;;;;;;;;;5020289;28;20095;-79
2022/11/27 00:21:15;;;;;;;22.00;7.20;;;;;;;;;;5018028;28;20112;-77
2022/11/27 00:23:41;;;;;;;17.98;6.63;;;;;;;;;;5050737;28;20107;-77
2022/11/27 00:26:08;;;;;;;21.05;6.47;;;;;;;;;;5038344;28;20086;-78
2022/11/27 00:28:34;;;;;;;26.60;7.40;;;;;;;;;;5050979;28;20068;-77
2022/11/27 00:31:05;;;;;;;21.17;7.45;;;;;;;;;;5052202;28;20075;-79
2022/11/27 00:33:32;;;;;;;21.25;7.55;;;;;;;;;;5051047;28;20501;-79
2022/11/27 00:36:02;;;;;;;24.75;6.82;;;;;;;;;;5050836;28;20049;-78
2022/11/27 00:38:28;;;;;;;22.17;7.22;;;;;;;;;;5050779;28;20099;-78
2022/11/27 00:40:58;;;;;;;19.13;5.90;;;;;;;;;;5034376;28;20053;-78
2022/11/27 00:43:24;;;;;;;20.17;6.88;;;;;;;;;;5051055;28;20095;-77
2022/11/27 00:45:50;;;;;;;19.90;5.80;;;;;;;;;;5033868;28;20045;-78
2022/11/27 00:48:16;;;;;;;20.73;7.05;;;;;;;;;;5036994;28;20041;-77
2022/11/27 00:50:43;;;;;;;21.73;6.57;;;;;;;;;;5033819;28;20058;-77
2022/11/27 00:53:09;;;;;;;23.65;6.93;;;;;;;;;;5050348;28;20048;-77
2022/11/27 00:55:35;;;;;;;20.45;6.57;;;;;;;;;;5034049;28;20052;-77
2022/11/27 00:58:01;;;;;;;18.88;6.15;;;;;;;;;;5034027;28;20087;-77
2022/11/27 01:00:27;;;;;;;22.60;6.53;;;;;;;;;;5050329;28;20048;-77
2022/11/27 01:02:53;;;;;;;22.08;6.70;;;;;;;;;;5051960;28;20040;-77
2022/11/27 01:05:19;;;;;;;23.08;7.55;;;;;;;;;;5050279;28;20124;-78
2022/11/27 01:07:45;;;;;;;21.83;6.15;;;;;;;;;;5050092;28;20045;-78
2022/11/27 01:10:11;;;;;;;20.55;6.07;;;;;;;;;;5050360;28;20041;-78
2022/11/27 01:12:37;;;;;;;20.98;6.53;;;;;;;;;;5046459;28;20103;-77
2022/11/27 01:15:04;;;;;;;18.25;6.38;;;;;;;;;;5051364;28;20032;-78
2022/11/27 01:17:30;;;;;;;25.30;6.25;;;;;;;;;;5070199;28;20032;-77
2022/11/27 01:19:56;;;;;;;20.40;6.70;;;;;;;;;;5071418;28;20131;-77
2022/11/27 01:22:22;;;;;;;22.00;6.68;;;;;;;;;;5070221;28;20048;-78
2022/11/27 01:24:48;;;;;;;26.00;6.93;;;;;;;;;;5054700;28;20040;-79
2022/11/27 01:27:14;;;;;;;19.92;5.72;;;;;;;;;;5073998;28;20047;-79
2022/11/27 01:29:40;;;;;;;26.63;6.50;;;;;;;;;;5060598;28;20443;-79
2022/11/27 01:32:06;;;;;;;17.85;6.47;;;;;;;;;;5057519;28;20098;-78
2022/11/27 01:34:32;;;;;;;19.75;6.57;;;;;;;;;;5057601;28;20375;-77
2022/11/27 01:36:58;;;;;;;22.13;6.10;;;;;;;;;;5073396;28;20047;-77
2022/11/27 01:39:24;;;;;;;21.00;6.53;;;;;;;;;;5059464;28;20494;-78
2022/11/27 01:41:50;;;;;;;21.50;6.72;;;;;;;;;;5073324;28;20048;-79
2022/11/27 01:44:22;;;;;;;14.93;5.80;;;;;;;;;;5069644;28;20036;-78
2022/11/27 01:46:51;;;;;;;20.25;7.10;;;;;;;;;;5066770;28;20036;-78
2022/11/27 01:49:24;;;;;;;18.45;6.38;;;;;;;;;;5073935;28;20564;-78
2022/11/27 01:52:06;;;;;;;18.30;6.63;;;;;;;;;;5056605;28;20094;-77
2022/11/27 01:54:34;;;;;;;18.33;6.32;;;;;;;;;;5073745;28;20040;-77
2022/11/27 01:57:02;;;;;;;21.73;6.90;;;;;;;;;;5074650;28;20036;-78
2022/11/27 01:59:28;;;;;;;15.48;6.45;;;;;;;;;;5073349;28;20041;-79
2022/11/27 02:01:54;;;;;;;17.52;6.35;;;;;;;;;;5057398;28;20069;-79
2022/11/27 02:04:20;;;;;;;17.55;6.72;;;;;;;;;;5016984;28;20120;-79
2022/11/27 02:06:46;;;;;;;19.10;6.13;;;;;;;;;;5065097;28;20473;-79
2022/11/27 02:09:13;;;;;;;16.73;6.35;;;;;;;;;;5056783;28;20131;-80
2022/11/27 02:11:57;;;;;;;18.70;6.45;;;;;;;;;;5060200;28;20398;-78
2022/11/27 02:14:34;;;;;;;17.52;6.85;;;;;;;;;;5047811;28;20040;-80
2022/11/27 02:17:12;;;;;;;20.83;7.00;;;;;;;;;;5069024;28;20055;-80
2022/11/27 02:19:41;;;;;;;17.65;6.72;;;;;;;;;;5086065;28;20041;-80
2022/11/27 02:22:19;;;;;;;19.65;7.72;;;;;;;;;;5072180;28;20131;-79
2022/11/27 02:25:00;;;;;;;20.75;6.75;;;;;;;;;;5063225;28;20401;-78
2022/11/27 02:27:30;;;;;;;18.25;6.95;;;;;;;;;;5072685;28;20133;-78
2022/11/27 02:29:59;;;;;;;24.35;7.57;;;;;;;;;;5065726;28;20044;-78
2022/11/27 02:32:31;;;;;;;15.73;6.95;;;;;;;;;;5072496;28;20037;-78
2022/11/27 02:35:01;;;;;;;17.58;6.40;;;;;;;;;;5046369;28;20048;-78
2022/11/27 02:37:32;;;;;;;22.75;7.45;;;;;;;;;;5068384;28;20097;-78
2022/11/27 02:40:08;;;;;;;17.55;6.80;;;;;;;;;;5072672;28;20052;-78
2022/11/27 02:42:37;;;;;;;18.30;6.88;;;;;;;;;;5073850;28;20554;-77
2022/11/27 02:45:07;;;;;;;13.85;6.55;;;;;;;;;;5056069;28;20403;-78
2022/11/27 02:47:33;;;;;;;15.95;5.72;;;;;;;;;;5072465;28;20119;-78
2022/11/27 02:50:00;;;;;;;14.55;6.60;;;;;;;;;;5073328;28;20090;-77
2022/11/27 02:52:27;;;;;;;16.50;6.88;;;;;;;;;;5056169;28;20388;-80
2022/11/27 02:54:55;;;;;;;17.13;6.78;;;;;;;;;;5072003;28;20068;-78
2022/11/27 02:57:23;;;;;;;17.38;6.65;;;;;;;;;;5062313;28;20041;-77
2022/11/27 02:59:50;;;;;;;17.25;7.35;;;;;;;;;;5068369;28;20037;-78
2022/11/27 03:02:18;;;;;;;17.38;7.20;;;;;;;;;;5056352;28;20490;-77
2022/11/27 03:04:47;;;;;;;20.05;8.05;;;;;;;;;;5066375;28;20040;-77
2022/11/27 03:07:16;;;;;;;17.88;7.10;;;;;;;;;;5067690;28;20057;-78
2022/11/27 03:09:45;;;;;;;17.48;7.05;;;;;;;;;;5068568;28;20044;-77
2022/11/27 03:12:11;;;;;;;18.30;7.32;;;;;;;;;;5072085;28;20504;-78
2022/11/27 03:14:38;;;;;;;17.35;7.32;;;;;;;;;;5072218;28;20389;-78
2022/11/27 03:17:17;;;;;;;23.58;8.45;;;;;;;;;;5072241;28;20451;-77
2022/11/27 03:19:52;;;;;;;23.55;7.38;;;;;;;;;;5071854;28;20076;-77
2022/11/27 03:22:18;;;;;;;19.08;7.07;;;;;;;;;;5046507;28;20044;-78
2022/11/27 03:24:44;;;;;;;18.63;6.72;;;;;;;;;;5071808;28;20056;-78
2022/11/27 03:27:13;;;;;;;20.08;7.45;;;;;;;;;;5067438;28;20068;-77
2022/11/27 03:29:42;;;;;;;17.95;7.55;;;;;;;;;;5064925;28;20055;-78
2022/11/27 03:32:09;;;;;;;19.33;6.93;;;;;;;;;;5068878;28;20037;-80
2022/11/27 03:34:36;;;;;;;19.67;7.28;;;;;;;;;;5051831;28;20037;-79
2022/11/27 03:37:02;;;;;;;15.45;6.68;;;;;;;;;;5068089;28;20428;-77
2022/11/27 03:39:29;;;;;;;15.70;7.03;;;;;;;;;;5071562;28;20536;-77
2022/11/27 03:42:13;;;;;;;17.15;7.25;;;;;;;;;;5072010;28;20440;-78
2022/11/27 03:44:55;;;;;;;20.40;7.20;;;;;;;;;;5071835;28;20044;-78
2022/11/27 03:47:39;;;;;;;13.50;6.80;;;;;;;;;;5043539;28;20044;-78
2022/11/27 03:50:24;;;;;;;20.13;7.13;;;;;;;;;;5043425;28;20048;-78
2022/11/27 03:52:50;;;;;;;21.20;7.47;;;;;;;;;;5070445;28;20123;-78
2022/11/27 03:55:21;;;;;;;16.90;7.00;;;;;;;;;;5050908;28;20344;-77
2022/11/27 03:58:04;;;;;;;15.63;6.93;;;;;;;;;;5066390;28;20050;-79
2022/11/27 04:00:31;;;;;;;16.27;6.63;;;;;;;;;;5048703;28;20496;-79
2022/11/27 04:02:57;;;;;;;19.45;6.72;;;;;;;;;;5072288;28;20058;-79
2022/11/27 04:05:23;;;;;;;16.65;7.03;;;;;;;;;;5054975;28;20039;-78
2022/11/27 04:07:49;;;;;;;17.58;7.22;;;;;;;;;;5071275;28;20048;-77
2022/11/27 04:10:16;;;;;;;20.10;7.20;;;;;;;;;;5049842;28;20041;-79
2022/11/27 04:12:42;;;;;;;16.80;6.97;;;;;;;;;;5028773;28;20496;-79
2022/11/27 04:15:08;;;;;;;18.02;7.05;;;;;;;;;;5040146;28;20072;-79
2022/11/27 04:17:34;;;;;;;19.17;7.18;;;;;;;;;;5071350;28;20094;-79
2022/11/27 04:20:01;;;;;;;17.70;6.78;;;;;;;;;;5070739;28;20472;-79
2022/11/27 04:22:27;;;;;;;17.58;6.38;;;;;;;;;;5071102;28;20109;-79
2022/11/27 04:24:53;;;;;;;15.23;6.50;;;;;;;;;;5054412;28;20083;-79
2022/11/27 04:27:19;;;;;;;19.98;6.80;;;;;;;;;;5053958;28;20095;-77
2022/11/27 04:29:45;;;;;;;13.55;6.40;;;;;;;;;;5038465;28;20072;-79
2022/11/27 04:32:11;;;;;;;14.45;6.38;;;;;;;;;;5053752;28;20045;-78
2022/11/27 04:34:37;;;;;;;15.60;6.50;;;;;;;;;;5054744;28;20504;-78
2022/11/27 04:37:03;;;;;;;20.27;6.50;;;;;;;;;;5071008;28;20047;-78
2022/11/27 04:39:29;;;;;;;16.13;6.30;;;;;;;;;;5063969;28;20068;-79
2022/11/27 04:41:55;;;;;;;18.70;6.70;;;;;;;;;;5064106;28;20481;-79
2022/11/27 04:44:22;;;;;;;16.90;6.38;;;;;;;;;;5066968;28;20519;-79
2022/11/27 04:46:48;;;;;;;17.92;5.70;;;;;;;;;;5063063;28;20037;-78
2022/11/27 04:49:14;;;;;;;17.50;6.35;;;;;;;;;;5054472;28;20040;-79
2022/11/27 04:51:40;;;;;;;20.13;6.70;;;;;;;;;;5072301;28;20041;-79
2022/11/27 04:54:06;;;;;;;19.95;6.60;;;;;;;;;;5053986;28;20094;-79
2022/11/27 04:56:33;;;;;;;22.42;6.50;;;;;;;;;;5068538;28;20033;-78
2022/11/27 04:58:59;;;;;;;17.02;5.43;;;;;;;;;;5043760;28;20037;-79
2022/11/27 05:01:25;;;;;;;13.77;5.82;;;;;;;;;;5068086;28;20087;-79
2022/11/27 05:03:51;;;;;;;12.80;5.13;;;;;;;;;;5057689;28;20036;-79
2022/11/27 05:06:17;;;;;;;13.75;5.07;;;;;;;;;;5073503;28;20055;-78
2022/11/27 05:08:43;;;;;;;12.73;5.35;;;;;;;;;;5074582;28;20572;-79
2022/11/27 05:11:13;;;;;;;15.27;5.65;;;;;;;;;;5074066;28;20036;-78
2022/11/27 05:13:39;;;;;;;16.52;5.55;;;;;;;;;;5074569;28;20397;-78
2022/11/27 05:16:06;;;;;;;16.05;5.93;;;;;;;;;;5075650;28;20036;-79
2022/11/27 05:18:32;;;;;;;14.65;5.40;;;;;;;;;;5058389;28;20494;-79
2022/11/27 05:20:59;;;;;;;11.27;4.97;;;;;;;;;;5062836;28;20051;-78
2022/11/27 05:23:25;;;;;;;12.68;5.05;;;;;;;;;;5074255;28;20470;-78
2022/11/27 05:25:51;;;;;;;17.02;5.93;;;;;;;;;;5057685;28;20485;-77
2022/11/27 05:28:17;;;;;;;12.60;4.55;;;;;;;;;;5053984;28;20048;-79
2022/11/27 05:30:43;;;;;;;15.55;4.93;;;;;;;;;;5072729;28;20040;-78
2022/11/27 05:33:09;;;;;;;10.50;4.95;;;;;;;;;;5073774;28;20036;-78
2022/11/27 05:35:36;;;;;;;14.32;4.90;;;;;;;;;;5073915;28;20075;-77
2022/11/27 05:38:02;;;;;;;12.20;5.00;;;;;;;;;;5056977;28;20128;-78
2022/11/27 05:40:28;;;;;;;9.48;4.38;;;;;;;;;;5056724;28;20058;-77
2022/11/27 05:42:54;;;;;;;16.65;5.35;;;;;;;;;;5074025;28;20045;-78
2022/11/27 05:45:20;;;;;;;11.38;4.57;;;;;;;;;;5057508;28;20489;-78
2022/11/27 05:47:46;;;;;;;14.63;5.03;;;;;;;;;;5075857;28;20489;-76
2022/11/27 05:50:12;;;;;;;17.52;4.93;;;;;;;;;;5053935;28;20044;-76
2022/11/27 05:52:38;;;;;;;13.88;4.60;;;;;;;;;;5068058;28;20048;-77
2022/11/27 05:55:04;;;;;;;10.13;4.63;;;;;;;;;;5075093;28;20154;-78
2022/11/27 05:57:31;;;;;;;15.82;4.72;;;;;;;;;;5073600;28;20124;-78
2022/11/27 05:59:57;;;;;;;15.63;4.50;;;;;;;;;;5057136;28;20040;-77
2022/11/27 06:02:24;;;;;;;13.52;4.85;;;;;;;;;;5073654;28;20067;-77
2022/11/27 06:04:50;;;;;;;14.25;4.85;;;;;;;;;;5072179;28;20105;-78
2022/11/27 06:07:16;;;;;;;12.85;4.90;;;;;;;;;;5061959;28;20036;-76
2022/11/27 06:09:42;;;;;;;18.40;4.43;;;;;;;;;;5073328;28;20044;-76
2022/11/27 06:12:09;;;;;;;11.93;4.47;;;;;;;;;;5041352;28;20028;-77
2022/11/27 06:14:35;;;;;;;13.02;4.60;;;;;;;;;;5106942;28;20040;-76
2022/11/27 06:17:01;;;;;;;13.07;4.90;;;;;;;;;;5073069;28;20037;-76
2022/11/27 06:19:28;;;;;;;10.68;4.40;;;;;;;;;;5056699;28;20113;-76
2022/11/27 06:21:54;;;;;;;13.25;4.70;;;;;;;;;;5042428;28;20055;-76
2022/11/27 06:24:20;;;;;;;10.68;4.22;;;;;;;;;;5074503;28;20036;-76
2022/11/27 06:26:46;;;;;;;12.32;4.20;;;;;;;;;;5073512;28;20526;-76
2022/11/27 06:29:12;;;;;;;12.63;3.80;;;;;;;;;;5067891;28;20040;-76
2022/11/27 06:31:38;;;;;;;13.23;4.03;;;;;;;;;;5055801;28;20123;-77
2022/11/27 06:34:05;;;;;;;11.52;4.18;;;;;;;;;;5072854;28;20037;-76
2022/11/27 06:36:39;;;;;;;12.45;3.95;;;;;;;;;;5073570;28;20041;-76
2022/11/27 06:39:06;;;;;;;14.85;4.28;;;;;;;;;;5073703;28;20098;-76
2022/11/27 06:41:32;;;;;;;16.48;5.25;;;;;;;;;;5072389;28;20082;-76
2022/11/27 06:43:59;;;;;;;13.35;4.03;;;;;;;;;;5073856;28;20036;-76
2022/11/27 06:46:25;;;;;;;12.77;4.07;;;;;;;;;;5072332;28;20503;-77
2022/11/27 06:48:52;;;;;;;11.00;4.35;;;;;;;;;;5072798;28;20036;-76
2022/11/27 06:51:20;;;;;;;11.10;4.15;;;;;;;;;;5069786;28;20048;-76
2022/11/27 06:53:46;;;;;;;12.05;3.85;;;;;;;;;;5044298;28;20033;-76
2022/11/27 06:56:13;;;;;;;13.43;4.68;;;;;;;;;;5072178;28;20080;-76
2022/11/27 06:58:40;;;;;;;12.93;4.20;;;;;;;;;;5073289;28;20041;-76
2022/11/27 07:01:07;;;;;;;14.07;4.40;;;;;;;;;;5072473;28;20098;-76
2022/11/27 07:03:34;;;;;;;12.25;4.07;;;;;;;;;;5071735;28;20046;-76
2022/11/27 07:06:01;;;;;;;9.80;3.90;;;;;;;;;;5072058;28;20040;-76
2022/11/27 07:08:27;;;;;;;10.85;4.18;;;;;;;;;;5072812;28;20029;-76
2022/11/27 07:10:53;;;;;;;13.90;4.22;;;;;;;;;;5073580;28;20171;-76
2022/11/27 07:13:19;;;;;;;12.35;4.03;;;;;;;;;;5071975;28;20102;-76
2022/11/27 07:15:45;;;;;;;14.77;4.22;;;;;;;;;;5048059;28;20486;-77
2022/11/27 07:18:12;;;;;;;11.45;3.88;;;;;;;;;;5065776;28;20483;-76
2022/11/27 07:20:38;;;;;;;10.27;3.95;;;;;;;;;;5071717;28;20052;-76
2022/11/27 07:23:04;;;;;;;11.43;4.22;;;;;;;;;;5038559;28;20054;-77
2022/11/27 07:25:30;;;;;;;12.20;4.40;;;;;;;;;;5054788;28;20046;-77
2022/11/27 07:27:56;;;;;;;8.57;4.13;;;;;;;;;;5061804;28;20041;-76
2022/11/27 07:30:22;;;;;;;10.40;3.85;;;;;;;;;;5067343;28;20044;-78
2022/11/27 07:32:48;;;;;;;11.32;4.25;;;;;;;;;;5073049;28;20501;-77
2022/11/27 07:35:14;;;;;;;10.85;4.18;;;;;;;;;;5072278;28;20379;-77
2022/11/27 07:37:40;;;;;;;12.93;4.40;;;;;;;;;;5071612;28;20139;-77
2022/11/27 07:40:06;;;;;;;11.43;3.97;;;;;;;;;;5071711;28;20045;-77
2022/11/27 07:42:32;;;;;;;8.57;4.18;;;;;;;;;;5071633;28;20466;-77
2022/11/27 07:44:59;;;;;;;12.60;4.45;;;;;;;;;;5054372;28;20174;-78
2022/11/27 07:47:25;;;;;;;9.65;4.07;;;;;;;;;;5063613;28;20048;-78
2022/11/27 07:49:53;;;;;;;14.98;4.45;;;;;;;;;;5072674;28;20037;-78
2022/11/27 07:52:19;;;;;;;9.60;4.13;;;;;;;;;;5071552;28;20040;-78
2022/11/27 07:54:46;;;;;;;11.10;3.95;;;;;;;;;;5071076;28;20048;-78
2022/11/27 07:57:12;;;;;;;11.23;4.43;;;;;;;;;;5071426;28;20048;-78
2022/11/27 07:59:38;;;;;;;10.43;4.60;;;;;;;;;;5071260;28;20105;-77
2022/11/27 08:02:04;;;;;;;11.27;3.97;;;;;;;;;;5071742;28;20048;-77
2022/11/27 08:04:30;;;;;;;15.00;5.03;;;;;;;;;;5105252;28;20045;-77
2022/11/27 08:06:57;;;;;;;10.73;3.90;;;;;;;;;;5054903;28;20397;-77
2022/11/27 08:09:23;;;;;;;13.25;4.70;;;;;;;;;;5071353;28;20054;-77
2022/11/27 08:11:49;;;;;;;10.38;4.80;;;;;;;;;;5054768;28;20041;-77
2022/11/27 08:14:18;;;;;;;12.90;4.07;;;;;;;;;;5071899;28;20398;-77
2022/11/27 08:16:44;;;;;;;14.75;4.35;;;;;;;;;;5038982;28;20098;-78
2022/11/27 08:19:10;;;;;;;13.63;5.10;;;;;;;;;;5034749;28;20440;-78
2022/11/27 08:21:36;;;;;;;9.48;4.80;;;;;;;;;;5034429;28;20033;-78
2022/11/27 08:24:02;;;;;;;11.07;4.82;;;;;;;;;;5105073;28;20063;-78
2022/11/27 08:26:28;;;;;;;12.15;4.78;;;;;;;;;;5054472;28;20047;-78
2022/11/27 08:28:55;;;;;;;14.40;5.05;;;;;;;;;;5067534;28;20421;-77
2022/11/27 08:31:21;;;;;;;10.85;4.90;;;;;;;;;;5054236;28;20041;-78
2022/11/27 08:33:48;;;;;;;13.90;5.30;;;;;;;;;;5053806;28;20056;-78
2022/11/27 08:36:14;;;;;;;10.85;4.75;;;;;;;;;;5075119;28;20040;-78
2022/11/27 08:38:40;;;;;;;13.23;5.28;;;;;;;;;;5074520;28;20055;-79
2022/11/27 08:41:07;;;;;;;11.75;4.72;;;;;;;;;;5075838;28;20044;-79
2022/11/27 08:43:34;;;;;;;10.73;4.88;;;;;;;;;;5075298;28;20045;-79
2022/11/27 08:46:02;;;;;;;12.90;4.82;;;;;;;;;;5095149;28;20497;-79
2022/11/27 08:48:28;;;;;;;12.85;4.80;;;;;;;;;;5069247;28;20041;-78
2022/11/27 08:50:54;;;;;;;12.82;4.88;;;;;;;;;;5067525;28;20058;-78
2022/11/27 08:53:21;;;;;;;13.15;6.07;;;;;;;;;;5074453;28;20051;-77
2022/11/27 08:55:47;;;;;;;17.50;6.07;;;;;;;;;;5074321;28;20123;-77
2022/11/27 08:58:13;;;;;;;18.70;7.10;;;;;;;;;;5074516;28;20086;-77
2022/11/27 09:00:39;;;;;;;15.70;6.30;;;;;;;;;;5066385;28;20041;-77
2022/11/27 09:03:05;;;;;;;20.58;7.40;;;;;;;;;;5070192;28;20409;-78
2022/11/27 09:05:32;;;;;;;16.85;7.30;;;;;;;;;;5035726;28;20099;-78
2022/11/27 09:08:01;;;;;;;12.07;6.20;;;;;;;;;;5040275;28;20067;-78
2022/11/27 09:10:27;;;;;;;13.80;5.78;;;;;;;;;;5074738;28;20440;-77
2022/11/27 09:12:55;;;;;;;15.13;6.97;;;;;;;;;;5074583;28;20079;-77
2022/11/27 09:15:21;;;;;;;13.70;6.38;;;;;;;;;;5074535;28;20040;-77
2022/11/27 09:17:47;;;;;;;13.40;5.97;;;;;;;;;;5057695;28;20037;-79
2022/11/27 09:20:14;;;;;;;14.85;6.38;;;;;;;;;;5060030;28;20047;-78
2022/11/27 09:22:40;;;;;;;15.52;5.80;;;;;;;;;;5075320;28;20055;-79
2022/11/27 09:25:08;;;;;;;15.70;6.50;;;;;;;;;;5075729;28;20211;-78
2022/11/27 09:27:34;;;;;;;15.90;7.00;;;;;;;;;;5074496;28;20493;-78
2022/11/27 09:30:01;;;;;;;15.25;6.25;;;;;;;;;;5053472;28;20060;-78
2022/11/27 09:32:27;;;;;;;17.33;7.30;;;;;;;;;;5068487;28;20122;-78
2022/11/27 09:34:53;;;;;;;13.57;6.85;;;;;;;;;;5064742;28;20389;-78
2022/11/27 09:37:19;;;;;;;15.75;6.57;;;;;;;;;;5060157;28;20049;-78
2022/11/27 09:39:45;;;;;;;16.38;6.88;;;;;;;;;;5074420;28;20056;-79
2022/11/27 09:42:17;;;;;;;18.00;7.18;;;;;;;;;;5056690;28;20055;-79
2022/11/27 09:44:45;;;;;;;16.58;7.47;;;;;;;;;;5054974;28;20102;-79
2022/11/27 09:47:11;;;;;;;18.60;7.00;;;;;;;;;;5067841;28;20029;-79
2022/11/27 09:49:43;;;;;;;17.40;7.80;;;;;;;;;;5071655;28;20052;-79
2022/11/27 09:52:15;;;;;;;18.15;6.93;;;;;;;;;;5063375;28;20043;-79
2022/11/27 09:54:53;;;;;;;15.02;7.88;;;;;;;;;;5057493;28;20080;-78
2022/11/27 09:57:22;;;;;;;16.30;6.80;;;;;;;;;;5063676;28;20040;-79
2022/11/27 09:59:50;;;;;;;16.67;7.35;;;;;;;;;;5073689;28;20033;-79
2022/11/27 10:02:18;;;;;;;15.63;7.05;;;;;;;;;;5075287;28;20086;-79
2022/11/27 10:04:44;;;;;;;14.00;7.05;;;;;;;;;;5072904;28;20094;-79
2022/11/27 10:07:18;;;;;;;18.13;7.53;;;;;;;;;;5061911;28;20055;-79
2022/11/27 10:10:00;;;;;;;21.55;7.97;;;;;;;;;;5059480;28;20519;-79
2022/11/27 10:12:28;;;;;;;14.48;6.38;;;;;;;;;;5042155;28;20041;-78
2022/11/27 10:15:02;;;;;;;19.45;7.30;;;;;;;;;;5068122;28;20041;-79
2022/11/27 10:17:32;;;;;;;15.73;6.53;;;;;;;;;;5074062;28;20048;-77
2022/11/27 10:19:58;;;;;;;15.85;6.97;;;;;;;;;;5072906;28;20053;-79
2022/11/27 10:22:32;;;;;;;17.63;7.47;;;;;;;;;;5060726;28;20146;-79
2022/11/27 10:25:02;;;;;;;20.25;7.55;;;;;;;;;;5043123;28;20044;-79
2022/11/27 10:27:32;;;;;;;17.42;7.45;;;;;;;;;;5042989;28;20047;-78
2022/11/27 10:29:59;;;;;;;18.73;7.10;;;;;;;;;;5067520;28;20048;-78
2022/11/27 10:32:27;;;;;;;20.00;6.75;;;;;;;;;;5074383;28;20486;-78
2022/11/27 10:34:57;;;;;;;14.85;7.10;;;;;;;;;;5073042;28;20394;-79
2022/11/27 10:37:25;;;;;;;18.42;7.78;;;;;;;;;;5073235;28;20485;-79
2022/11/27 10:39:58;;;;;;;17.40;7.05;;;;;;;;;;5063547;28;20056;-79
2022/11/27 10:42:34;;;;;;;17.38;8.07;;;;;;;;;;5067243;28;20079;-79
2022/11/27 10:45:00;;;;;;;;;;;;;;;;;;5064957;28;20397;-79
2022/11/27 10:47:28;;;;;;;13.68;6.65;;;;;;;;;;5073187;28;19916;-79
2022/11/27 10:49:54;;;;;;;17.95;7.93;;;;;;;;;;5058132;28;20119;-79
2022/11/27 10:52:20;;;;;;;17.77;7.68;;;;;;;;;;5062038;28;20041;-79
2022/11/27 10:54:52;;;;;;;14.93;7.55;;;;;;;;;;5070530;28;20047;-79
2022/11/27 10:57:37;;;;;;;18.75;7.75;;;;;;;;;;5071986;28;20075;-79
2022/11/27 11:00:13;;;;;;;16.88;7.55;;;;;;;;;;5072487;28;20405;-78
2022/11/27 11:02:39;;;;;;;;;;;;;;;;;;5074457;28;20036;-78
2022/11/27 11:05:32;;;;;;;20.45;7.63;;;;;;;;;;5057889;28;19959;-79
2022/11/27 11:08:04;;;;;;;15.25;7.03;;;;;;;;;;5070111;28;20036;-79
2022/11/27 11:10:34;;;;;;;16.70;6.85;;;;;;;;;;5073037;28;20044;-79
2022/11/27 11:13:15;;;;;;;16.35;7.75;;;;;;;;;;5071890;28;20036;-78
2022/11/27 11:15:46;;;;;;;15.57;7.20;;;;;;;;;;5072007;28;20111;-78
2022/11/27 11:18:17;;;;;;;16.88;7.80;;;;;;;;;;5060529;28;20124;-79
2022/11/27 11:20:47;;;;;;;19.55;7.90;;;;;;;;;;5071098;28;20438;-79
2022/11/27 11:23:20;;;;;;;14.70;7.55;;;;;;;;;;5055794;28;20044;-79
2022/11/27 11:25:51;;;;;;;17.38;7.20;;;;;;;;;;5073083;28;20120;-79
2022/11/27 11:28:18;;;;;;;14.65;7.18;;;;;;;;;;5044809;28;20037;-79
2022/11/27 11:30:51;;;;;;;14.73;6.28;;;;;;;;;;5054459;28;20041;-79
2022/11/27 11:33:17;;;;;;;15.05;6.90;;;;;;;;;;5105912;28;20052;-78
2022/11/27 11:35:50;;;;;;;17.50;7.03;;;;;;;;;;5072877;28;20040;-78
2022/11/27 11:38:18;;;;;;;13.93;6.00;;;;;;;;;;5070407;28;20589;-78
2022/11/27 11:40:56;;;;;;;15.45;6.90;;;;;;;;;;5039760;28;20041;-78
2022/11/27 11:43:26;;;;;;;14.45;7.40;;;;;;;;;;5062703;28;20044;-78
2022/11/27 11:45:52;;;;;;;17.85;7.93;;;;;;;;;;5071391;28;20036;-79
2022/11/27 11:48:22;;;;;;;17.13;7.72;;;;;;;;;;5066089;28;20044;-79
2022/11/27 11:50:53;;;;;;;14.77;7.10;;;;;;;;;;5063466;28;20483;-78
2022/11/27 11:53:22;;;;;;;21.48;9.88;;;;;;;;;;5035798;28;20044;-77
2022/11/27 11:55:54;;;;;;;15.70;6.72;;;;;;;;;;5051769;28;20052;-79
2022/11/27 11:58:27;;;;;;;17.08;6.82;;;;;;;;;;5053062;28;20071;-80
2022/11/27 12:01:00;;;;;;;13.25;6.78;;;;;;;;;;5071914;28;20048;-77
2022/11/27 12:03:33;;;;;;;14.70;6.35;;;;;;;;;;5071824;28;20040;-79
2022/11/27 12:06:08;;;;;;;15.68;7.50;;;;;;;;;;5071017;28;20059;-78
2022/11/27 12:08:46;;;;;;;17.40;6.88;;;;;;;;;;5070744;28;20128;-79
2022/11/27 12:11:14;;;;;;;14.80;7.20;;;;;;;;;;5042367;28;20051;-78
2022/11/27 12:13:56;;;;;;;14.60;6.53;;;;;;;;;;5051747;28;20441;-80
2022/11/27 12:16:25;;;;;;;15.85;6.82;;;;;;;;;;5063996;28;20037;-79
2022/11/27 12:18:54;;;;;;;14.45;6.82;;;;;;;;;;5072640;28;20032;-79
2022/11/27 12:21:25;;;;;;;15.65;6.90;;;;;;;;;;5072293;28;20123;-79
2022/11/27 12:23:51;;;;;;;20.20;7.82;;;;;;;;;;5067697;28;20539;-79
2022/11/27 12:26:39;;;;;;;20.30;8.45;;;;;;;;;;5052174;28;20037;-79
2022/11/27 12:29:21;;;;;;;15.32;8.27;;;;;;;;;;5070540;28;20055;-79
2022/11/27 12:32:06;;;;;;;17.38;8.32;;;;;;;;;;5072306;28;20046;-79
2022/11/27 12:34:32;;;;;;;17.35;7.35;;;;;;;;;;5039302;28;20087;-79
2022/11/27 12:37:08;;;;;;;14.07;6.63;;;;;;;;;;5064956;28;20043;-77
2022/11/27 12:39:53;;;;;;;14.63;7.00;;;;;;;;;;5070970;28;20110;-77
2022/11/27 12:42:24;;;;;;;14.35;6.50;;;;;;;;;;5070539;28;20052;-78
2022/11/27 12:44:54;;;;;;;13.13;7.10;;;;;;;;;;5071202;28;20041;-77
2022/11/27 12:47:32;;;;;;;16.02;6.80;;;;;;;;;;5053784;28;20045;-77
2022/11/27 12:50:02;;;;;;;16.88;7.80;;;;;;;;;;5067072;28;20052;-77
2022/11/27 12:52:34;;;;;;;17.88;7.78;;;;;;;;;;5062874;28;20123;-78
2022/11/27 12:55:04;;;;;;;14.10;6.95;;;;;;;;;;5070821;28;20082;-78
2022/11/27 12:57:36;;;;;;;17.77;7.47;;;;;;;;;;5061006;28;20075;-78
2022/11/27 13:00:05;;;;;;;16.13;7.10;;;;;;;;;;5070155;28;20383;-78
2022/11/27 13:02:34;;;;;;;13.90;6.60;;;;;;;;;;5060094;28;20041;-77
2022/11/27 13:05:02;;;;;;;16.50;6.68;;;;;;;;;;5051102;28;20045;-77
2022/11/27 13:07:28;;;;;;;14.13;7.65;;;;;;;;;;5045053;28;20124;-78
2022/11/27 13:10:00;;;;;;;12.63;7.18;;;;;;;;;;5067083;28;20040;-78
2022/11/27 13:12:32;;;;;;;16.67;6.78;;;;;;;;;;5054155;28;20087;-77
2022/11/27 13:15:01;;;;;;;14.45;7.28;;;;;;;;;;5056988;28;20049;-78
2022/11/27 13:17:32;;;;;;;18.23;6.93;;;;;;;;;;5070375;28;20550;-77
2022/11/27 13:19:58;;;;;;;17.40;7.20;;;;;;;;;;5063661;28;20106;-78
2022/11/27 13:22:33;;;;;;;13.30;6.80;;;;;;;;;;5054105;28;20051;-77
2022/11/27 13:25:00;;;;;;;12.25;6.47;;;;;;;;;;5074905;28;20123;-78
2022/11/27 13:27:28;;;;;;;14.65;7.22;;;;;;;;;;5043334;28;20048;-77
2022/11/27 13:29:54;;;;;;;14.90;7.18;;;;;;;;;;5065729;28;20131;-77
2022/11/27 13:32:22;;;;;;;15.10;7.82;;;;;;;;;;5059567;28;20041;-78
2022/11/27 13:34:49;;;;;;;14.38;6.93;;;;;;;;;;5075605;28;20437;-77
2022/11/27 13:37:27;;;;;;;14.57;6.97;;;;;;;;;;5074078;28;20438;-77
2022/11/27 13:40:06;;;;;;;16.27;7.30;;;;;;;;;;5046900;28;20062;-77
2022/11/27 13:42:36;;;;;;;12.50;6.82;;;;;;;;;;5073997;28;20049;-77
2022/11/27 13:45:05;;;;;;;15.32;7.13;;;;;;;;;;5062419;28;20047;-77
2022/11/27 13:47:37;;;;;;;16.10;7.50;;;;;;;;;;5073402;28;20044;-77
2022/11/27 13:50:05;;;;;;;15.05;7.38;;;;;;;;;;5073978;28;20481;-77
2022/11/27 13:52:31;;;;;;;19.15;7.70;;;;;;;;;;5061228;28;20048;-77
2022/11/27 13:55:01;;;;;;;12.43;6.57;;;;;;;;;;5068239;28;20043;-77
2022/11/27 13:57:29;;;;;;;15.43;7.43;;;;;;;;;;5036884;28;20132;-77
2022/11/27 14:00:03;;;;;;;13.45;7.05;;;;;;;;;;5072217;28;20032;-77
2022/11/27 14:02:49;;;;;;;18.63;7.47;;;;;;;;;;5063293;28;20051;-78
2022/11/27 14:05:16;;;;;;;16.48;7.57;;;;;;;;;;5074579;28;20037;-78
2022/11/27 14:07:44;;;;;;;16.70;7.68;;;;;;;;;;5063434;28;20433;-78
2022/11/27 14:10:14;;;;;;;15.25;7.45;;;;;;;;;;5072483;28;20036;-77
2022/11/27 14:12:41;;;;;;;13.75;7.55;;;;;;;;;;5074726;28;20040;-77
2022/11/27 14:15:22;;;;;;;14.50;7.50;;;;;;;;;;5073263;28;20060;-78
2022/11/27 14:17:49;;;;;;;13.82;7.03;;;;;;;;;;5073292;28;20044;-78
2022/11/27 14:20:15;;;;;;;16.50;7.85;;;;;;;;;;5073102;28;20036;-77
2022/11/27 14:22:52;;;;;;;17.25;8.38;;;;;;;;;;5056788;28;20401;-77
2022/11/27 14:25:21;;;;;;;13.35;7.28;;;;;;;;;;5047613;28;20439;-77
2022/11/27 14:27:48;;;;;;;14.05;7.32;;;;;;;;;;5068781;28;20052;-78
2022/11/27 14:30:23;;;;;;;16.08;8.10;;;;;;;;;;5053187;28;20548;-78
2022/11/27 14:32:49;;;;;;;16.50;7.07;;;;;;;;;;5066916;28;20052;-78
2022/11/27 14:35:25;;;;;;;17.88;7.82;;;;;;;;;;5074202;28;20111;-79
2022/11/27 14:37:52;;;;;;;15.07;7.60;;;;;;;;;;5074067;28;20040;-79
2022/11/27 14:40:24;;;;;;;17.77;7.22;;;;;;;;;;5052675;28;20057;-79